sensor_id;sensor_type;location;lat;lon;timestamp;pressure;altitude;pressure_sealevel;temperature;humidity
70103;BME280;57470;50.034;15.256;2023-01-29T00:01:38;100602.78;;;-1.23;79.65
70103;BME280;57470;50.034;15.256;2023-01-29T00:04:03;100595.88;;;-1.35;78.98
70103;BME280;57470;50.034;15.256;2023-01-29T00:06:29;100604.53;;;-1.19;79.21
70103;BME280;57470;50.034;15.256;2023-01-29T00:08:55;100600.25;;;-1.47;79.99
70103;BME280;57470;50.034;15.256;2023-01-29T00:11:20;100608.03;;;-1.26;79.65
70103;BME280;57470;50.034;15.256;2023-01-29T00:13:46;100593.31;;;-1.55;80.74
70103;BME280;57470;50.034;15.256;2023-01-29T00:16:12;100591.53;;;-1.42;80.29
70103;BME280;57470;50.034;15.256;2023-01-29T00:18:38;100585.44;;;-1.27;79.67
70103;BME280;57470;50.034;15.256;2023-01-29T00:21:12;100581.91;;;-1.17;79.21
70103;BME280;57470;50.034;15.256;2023-01-29T00:23:38;100586.25;;;-1.22;79.39
70103;BME280;57470;50.034;15.256;2023-01-29T00:26:04;100592.38;;;-1.26;80.06
70103;BME280;57470;50.034;15.256;2023-01-29T00:28:29;100589.75;;;-1.34;79.64
70103;BME280;57470;50.034;15.256;2023-01-29T00:30:55;100595.00;;;-1.28;79.58
70103;BME280;57470;50.034;15.256;2023-01-29T00:33:20;100596.69;;;-1.22;79.06
70103;BME280;57470;50.034;15.256;2023-01-29T00:35:45;100593.22;;;-1.21;79.74
70103;BME280;57470;50.034;15.256;2023-01-29T00:38:11;100602.81;;;-1.29;79.69
70103;BME280;57470;50.034;15.256;2023-01-29T00:40:37;100595.88;;;-1.26;79.03
70103;BME280;57470;50.034;15.256;2023-01-29T00:43:22;100608.91;;;-1.26;79.54
70103;BME280;57470;50.034;15.256;2023-01-29T00:46:06;100608.00;;;-1.23;79.51
70103;BME280;57470;50.034;15.256;2023-01-29T00:48:32;100606.31;;;-1.36;79.62
70103;BME280;57470;50.034;15.256;2023-01-29T00:50:58;100611.53;;;-1.27;79.34
70103;BME280;57470;50.034;15.256;2023-01-29T00:53:24;100607.16;;;-1.19;79.73
70103;BME280;57470;50.034;15.256;2023-01-29T00:55:49;100614.09;;;-1.12;79.46
70103;BME280;57470;50.034;15.256;2023-01-29T00:58:15;100610.56;;;-1.05;79.09
70103;BME280;57470;50.034;15.256;2023-01-29T01:00:47;100612.34;;;-1.10;79.69
70103;BME280;57470;50.034;15.256;2023-01-29T01:03:13;100611.44;;;-1.01;78.99
70103;BME280;57470;50.034;15.256;2023-01-29T01:05:38;100607.03;;;-0.87;78.38
70103;BME280;57470;50.034;15.256;2023-01-29T01:08:04;100595.66;;;-0.72;79.27
70103;BME280;57470;50.034;15.256;2023-01-29T01:11:00;100600.97;;;-0.92;78.92
70103;BME280;57470;50.034;15.256;2023-01-29T01:13:26;100596.56;;;-0.81;79.56
70103;BME280;57470;50.034;15.256;2023-01-29T01:15:52;100594.94;;;-1.13;79.42
70103;BME280;57470;50.034;15.256;2023-01-29T01:18:17;100580.16;;;-1.09;81.42
70103;BME280;57470;50.034;15.256;2023-01-29T01:20:46;100589.75;;;-1.19;80.64
70103;BME280;57470;50.034;15.256;2023-01-29T01:23:16;100598.34;;;-0.94;79.26
70103;BME280;57470;50.034;15.256;2023-01-29T01:25:42;100585.41;;;-1.21;81.66
70103;BME280;57470;50.034;15.256;2023-01-29T01:28:07;100576.66;;;-1.16;81.18
70103;BME280;57470;50.034;15.256;2023-01-29T01:30:33;100568.88;;;-1.17;78.92
70103;BME280;57470;50.034;15.256;2023-01-29T01:32:58;100574.13;;;-1.29;79.06
70103;BME280;57470;50.034;15.256;2023-01-29T01:35:24;100577.59;;;-1.26;78.57
70103;BME280;57470;50.034;15.256;2023-01-29T01:37:50;100575.78;;;-1.16;77.95
70103;BME280;57470;50.034;15.256;2023-01-29T01:40:18;100570.59;;;-1.19;78.79
70103;BME280;57470;50.034;15.256;2023-01-29T01:42:50;100565.41;;;-1.30;79.55
70103;BME280;57470;50.034;15.256;2023-01-29T01:47:49;100580.19;;;-1.20;78.81
70103;BME280;57470;50.034;15.256;2023-01-29T01:51:04;100573.16;;;-1.01;79.03
70103;BME280;57470;50.034;15.256;2023-01-29T01:53:13;100565.31;;;-1.05;79.66
70103;BME280;57470;50.034;15.256;2023-01-29T01:55:49;100552.34;;;-1.22;79.38
70103;BME280;57470;50.034;15.256;2023-01-29T01:58:33;100561.84;;;-1.06;78.97
70103;BME280;57470;50.034;15.256;2023-01-29T02:01:00;100562.78;;;-1.25;78.65
70103;BME280;57470;50.034;15.256;2023-01-29T02:03:26;100565.34;;;-1.11;79.46
70103;BME280;57470;50.034;15.256;2023-01-29T02:06:11;100562.88;;;-1.43;78.12
70103;BME280;57470;50.034;15.256;2023-01-29T02:08:59;100573.28;;;-1.46;78.87
70103;BME280;57470;50.034;15.256;2023-01-29T02:11:44;100574.09;;;-1.19;78.51
70103;BME280;57470;50.034;15.256;2023-01-29T02:14:10;100577.50;;;-1.01;79.05
70103;BME280;57470;50.034;15.256;2023-01-29T02:16:36;100575.75;;;-1.04;78.29
70103;BME280;57470;50.034;15.256;2023-01-29T02:19:04;100580.97;;;-1.07;78.16
70103;BME280;57470;50.034;15.256;2023-01-29T02:21:51;100575.00;;;-1.26;77.75
70103;BME280;57470;50.034;15.256;2023-01-29T02:27:16;100571.47;;;-1.25;78.56
70103;BME280;57470;50.034;15.256;2023-01-29T02:32:31;100573.28;;;-1.45;78.02
70103;BME280;57470;50.034;15.256;2023-01-29T02:35:10;100565.34;;;-1.16;78.37
70103;BME280;57470;50.034;15.256;2023-01-29T02:40:46;100562.66;;;-0.92;78.11
70103;BME280;57470;50.034;15.256;2023-01-29T02:45:59;100559.06;;;-0.69;78.21
70103;BME280;57470;50.034;15.256;2023-01-29T02:48:31;100549.53;;;-0.80;78.38
70103;BME280;57470;50.034;15.256;2023-01-29T02:51:12;100558.25;;;-0.82;78.05
70103;BME280;57470;50.034;15.256;2023-01-29T02:54:06;100563.53;;;-0.90;77.94
70103;BME280;57470;50.034;15.256;2023-01-29T02:57:00;100547.88;;;-0.91;78.34
70103;BME280;57470;50.034;15.256;2023-01-29T03:02:23;100566.09;;;-0.88;78.46
70103;BME280;57470;50.034;15.256;2023-01-29T03:04:57;100563.63;;;-1.08;77.85
70103;BME280;57470;50.034;15.256;2023-01-29T03:07:32;100580.09;;;-1.00;77.77
70103;BME280;57470;50.034;15.256;2023-01-29T03:16:19;100582.78;;;-1.18;78.23
70103;BME280;57470;50.034;15.256;2023-01-29T03:18:56;100580.06;;;-0.98;78.31
70103;BME280;57470;50.034;15.256;2023-01-29T03:21:54;100583.59;;;-1.04;78.72
70103;BME280;57470;50.034;15.256;2023-01-29T03:24:47;100584.44;;;-0.94;78.03
70103;BME280;57470;50.034;15.256;2023-01-29T03:27:52;100587.91;;;-0.95;78.09
70103;BME280;57470;50.034;15.256;2023-01-29T03:30:49;100587.09;;;-1.11;78.66
70103;BME280;57470;50.034;15.256;2023-01-29T03:33:41;100579.25;;;-0.99;78.70
70103;BME280;57470;50.034;15.256;2023-01-29T03:36:13;100582.78;;;-1.23;78.45
70103;BME280;57470;50.034;15.256;2023-01-29T03:38:41;100587.09;;;-1.09;78.78
70103;BME280;57470;50.034;15.256;2023-01-29T03:41:17;100584.56;;;-1.26;78.92
70103;BME280;57470;50.034;15.256;2023-01-29T03:43:54;100577.53;;;-1.15;78.11
70103;BME280;57470;50.034;15.256;2023-01-29T03:46:46;100578.47;;;-1.31;78.42
70103;BME280;57470;50.034;15.256;2023-01-29T03:49:14;100572.31;;;-1.12;78.88
70103;BME280;57470;50.034;15.256;2023-01-29T03:51:54;100566.19;;;-1.02;77.97
70103;BME280;57470;50.034;15.256;2023-01-29T03:54:29;100575.72;;;-0.95;77.93
70103;BME280;57470;50.034;15.256;2023-01-29T03:57:03;100559.25;;;-1.12;77.61
70103;BME280;57470;50.034;15.256;2023-01-29T03:59:38;100557.53;;;-1.10;77.98
70103;BME280;57470;50.034;15.256;2023-01-29T04:02:12;100559.25;;;-1.12;77.44
70103;BME280;57470;50.034;15.256;2023-01-29T04:04:41;100569.66;;;-1.03;76.69
70103;BME280;57470;50.034;15.256;2023-01-29T04:07:17;100563.56;;;-1.00;77.11
70103;BME280;57470;50.034;15.256;2023-01-29T04:09:48;100559.19;;;-0.97;76.56
70103;BME280;57470;50.034;15.256;2023-01-29T04:12:20;100562.66;;;-0.98;76.56
70103;BME280;57470;50.034;15.256;2023-01-29T04:14:49;100557.63;;;-1.39;77.39
70103;BME280;57470;50.034;15.256;2023-01-29T04:17:26;100555.84;;;-1.34;77.90
70103;BME280;57470;50.034;15.256;2023-01-29T04:19:58;100566.25;;;-1.20;77.99
70103;BME280;57470;50.034;15.256;2023-01-29T04:22:29;100572.38;;;-1.33;80.09
70103;BME280;57470;50.034;15.256;2023-01-29T04:24:56;100577.56;;;-1.21;80.09
70103;BME280;57470;50.034;15.256;2023-01-29T04:38:43;100542.91;;;-1.69;83.52
70103;BME280;57470;50.034;15.256;2023-01-29T04:46:44;100535.97;;;-1.80;83.96
70103;BME280;57470;50.034;15.256;2023-01-29T04:49:26;100546.38;;;-1.70;84.99
70103;BME280;57470;50.034;15.256;2023-01-29T04:52:11;100537.72;;;-1.79;84.56
70103;BME280;57470;50.034;15.256;2023-01-29T04:58:06;100538.59;;;-1.80;84.41
70103;BME280;57470;50.034;15.256;2023-01-29T05:00:39;100545.53;;;-1.75;84.94
70103;BME280;57470;50.034;15.256;2023-01-29T05:03:06;100542.06;;;-1.92;85.78
70103;BME280;57470;50.034;15.256;2023-01-29T05:05:34;100533.34;;;-1.76;85.41
70103;BME280;57470;50.034;15.256;2023-01-29T05:08:01;100531.63;;;-1.71;84.97
70103;BME280;57470;50.034;15.256;2023-01-29T05:10:28;100525.53;;;-1.83;85.14
70103;BME280;57470;50.034;15.256;2023-01-29T05:12:59;100533.41;;;-1.88;85.85
70103;BME280;57470;50.034;15.256;2023-01-29T05:15:34;100532.47;;;-1.76;85.29
70103;BME280;57470;50.034;15.256;2023-01-29T05:18:01;100529.84;;;-1.57;84.84
70103;BME280;57470;50.034;15.256;2023-01-29T05:20:31;100525.53;;;-1.77;84.98
70103;BME280;57470;50.034;15.256;2023-01-29T05:22:57;100529.00;;;-1.78;84.69
70103;BME280;57470;50.034;15.256;2023-01-29T05:25:26;100521.19;;;-1.77;84.32
70103;BME280;57470;50.034;15.256;2023-01-29T05:27:51;100532.47;;;-1.78;84.45
70103;BME280;57470;50.034;15.256;2023-01-29T05:30:34;100524.69;;;-1.81;84.74
70103;BME280;57470;50.034;15.256;2023-01-29T05:33:00;100522.06;;;-1.70;84.64
70103;BME280;57470;50.034;15.256;2023-01-29T05:35:25;100522.91;;;-1.68;84.53
70103;BME280;57470;50.034;15.256;2023-01-29T05:37:54;100535.06;;;-1.69;85.07
70103;BME280;57470;50.034;15.256;2023-01-29T05:40:19;100529.00;;;-1.63;84.59
70103;BME280;57470;50.034;15.256;2023-01-29T05:42:45;100529.84;;;-1.58;84.83
70103;BME280;57470;50.034;15.256;2023-01-29T05:45:10;100523.81;;;-1.80;84.21
70103;BME280;57470;50.034;15.256;2023-01-29T05:47:36;100516.81;;;-1.66;85.09
70103;BME280;57470;50.034;15.256;2023-01-29T05:50:01;100525.53;;;-1.74;85.01
70103;BME280;57470;50.034;15.256;2023-01-29T05:52:26;100525.50;;;-1.59;85.08
70103;BME280;57470;50.034;15.256;2023-01-29T05:54:52;100518.50;;;-1.48;84.96
70103;BME280;57470;50.034;15.256;2023-01-29T05:57:17;100518.59;;;-1.95;85.64
70103;BME280;57470;50.034;15.256;2023-01-29T05:59:42;100519.44;;;-1.76;85.85
70103;BME280;57470;50.034;15.256;2023-01-29T06:02:08;100522.91;;;-1.65;85.76
70103;BME280;57470;50.034;15.256;2023-01-29T06:04:33;100515.09;;;-1.65;85.35
70103;BME280;57470;50.034;15.256;2023-01-29T06:06:58;100501.16;;;-1.58;85.17
70103;BME280;57470;50.034;15.256;2023-01-29T06:09:25;100507.28;;;-1.77;86.27
70103;BME280;57470;50.034;15.256;2023-01-29T06:11:50;100493.34;;;-1.66;85.37
70103;BME280;57470;50.034;15.256;2023-01-29T06:14:15;100503.81;;;-1.82;85.99
70103;BME280;57470;50.034;15.256;2023-01-29T06:16:41;100500.34;;;-1.83;85.75
70103;BME280;57470;50.034;15.256;2023-01-29T06:19:06;100504.69;;;-1.80;85.06
70103;BME280;57470;50.034;15.256;2023-01-29T06:21:32;100501.19;;;-1.76;85.17
70103;BME280;57470;50.034;15.256;2023-01-29T06:23:57;100504.66;;;-1.65;84.54
70103;BME280;57470;50.034;15.256;2023-01-29T06:26:22;100500.28;;;-1.60;84.31
70103;BME280;57470;50.034;15.256;2023-01-29T06:28:48;100496.81;;;-1.65;84.81
70103;BME280;57470;50.034;15.256;2023-01-29T06:31:14;100498.53;;;-1.55;84.79
70103;BME280;57470;50.034;15.256;2023-01-29T06:33:39;100508.91;;;-1.37;84.49
70103;BME280;57470;50.034;15.256;2023-01-29T06:36:05;100512.41;;;-1.48;84.52
70103;BME280;57470;50.034;15.256;2023-01-29T06:38:30;100518.47;;;-1.36;83.63
70103;BME280;57470;50.034;15.256;2023-01-29T06:40:57;100522.78;;;-1.30;83.37
70103;BME280;57470;50.034;15.256;2023-01-29T06:43:22;100506.25;;;-1.34;83.53
70103;BME280;57470;50.034;15.256;2023-01-29T06:45:49;100506.22;;;-1.17;83.58
70103;BME280;57470;50.034;15.256;2023-01-29T06:48:15;100512.38;;;-1.41;83.36
70103;BME280;57470;50.034;15.256;2023-01-29T06:50:41;100505.53;;;-1.63;84.27
70103;BME280;57470;50.034;15.256;2023-01-29T06:53:06;100509.00;;;-1.76;83.91
70103;BME280;57470;50.034;15.256;2023-01-29T06:55:32;100515.06;;;-1.68;84.27
70103;BME280;57470;50.034;15.256;2023-01-29T06:57:57;100504.66;;;-1.65;85.00
70103;BME280;57470;50.034;15.256;2023-01-29T07:00:22;100510.69;;;-1.49;84.51
70103;BME280;57470;50.034;15.256;2023-01-29T07:02:48;100515.94;;;-1.56;84.30
70103;BME280;57470;50.034;15.256;2023-01-29T07:05:14;100528.97;;;-1.57;84.61
70103;BME280;57470;50.034;15.256;2023-01-29T07:07:39;100534.19;;;-1.57;84.50
70103;BME280;57470;50.034;15.256;2023-01-29T07:10:05;100532.44;;;-1.54;84.21
70103;BME280;57470;50.034;15.256;2023-01-29T07:12:31;100529.81;;;-1.44;84.26
70103;BME280;57470;50.034;15.256;2023-01-29T07:14:56;100535.88;;;-1.38;83.19
70103;BME280;57470;50.034;15.256;2023-01-29T07:17:22;100541.16;;;-1.62;82.91
70103;BME280;57470;50.034;15.256;2023-01-29T07:19:47;100532.47;;;-1.67;82.01
70103;BME280;57470;50.034;15.256;2023-01-29T07:22:12;100540.31;;;-1.84;82.19
70103;BME280;57470;50.034;15.256;2023-01-29T07:24:38;100541.13;;;-1.58;82.17
70103;BME280;57470;50.034;15.256;2023-01-29T07:27:04;100552.41;;;-1.46;81.69
70103;BME280;57470;50.034;15.256;2023-01-29T07:29:29;100556.75;;;-1.52;80.97
70103;BME280;57470;50.034;15.256;2023-01-29T07:31:54;100561.13;;;-1.55;81.00
70103;BME280;57470;50.034;15.256;2023-01-29T07:34:20;100568.09;;;-1.59;80.36
70103;BME280;57470;50.034;15.256;2023-01-29T07:36:45;100579.41;;;-1.55;80.74
70103;BME280;57470;50.034;15.256;2023-01-29T07:39:11;100583.75;;;-1.63;80.82
70103;BME280;57470;50.034;15.256;2023-01-29T07:41:36;100577.69;;;-1.71;79.37
70103;BME280;57470;50.034;15.256;2023-01-29T07:44:02;100588.97;;;-1.59;78.82
70103;BME280;57470;50.034;15.256;2023-01-29T07:46:27;100569.84;;;-1.62;78.70
70103;BME280;57470;50.034;15.256;2023-01-29T07:48:52;100580.22;;;-1.39;78.89
70103;BME280;57470;50.034;15.256;2023-01-29T07:51:18;100590.66;;;-1.41;78.69
70103;BME280;57470;50.034;15.256;2023-01-29T07:53:45;100589.81;;;-1.46;78.76
70103;BME280;57470;50.034;15.256;2023-01-29T07:56:11;100593.31;;;-1.64;78.91
70103;BME280;57470;50.034;15.256;2023-01-29T07:58:36;100585.50;;;-1.67;78.22
70103;BME280;57470;50.034;15.256;2023-01-29T08:01:06;100590.69;;;-1.47;78.19
70103;BME280;57470;50.034;15.256;2023-01-29T08:03:32;100595.00;;;-1.31;77.47
70103;BME280;57470;50.034;15.256;2023-01-29T08:05:57;100587.22;;;-1.60;77.17
70103;BME280;57470;50.034;15.256;2023-01-29T08:08:22;100574.16;;;-1.52;77.47
70103;BME280;57470;50.034;15.256;2023-01-29T08:10:48;100585.44;;;-1.26;78.11
70103;BME280;57470;50.034;15.256;2023-01-29T08:13:13;100593.25;;;-1.27;77.70
70103;BME280;57470;50.034;15.256;2023-01-29T08:15:42;100593.25;;;-1.26;77.13
70103;BME280;57470;50.034;15.256;2023-01-29T08:18:07;100601.06;;;-1.21;77.41
70103;BME280;57470;50.034;15.256;2023-01-29T08:20:33;100608.06;;;-1.38;75.47
70103;BME280;57470;50.034;15.256;2023-01-29T08:23:07;100615.88;;;-1.29;76.09
70103;BME280;57470;50.034;15.256;2023-01-29T08:25:33;100620.25;;;-1.34;76.94
70103;BME280;57470;50.034;15.256;2023-01-29T08:27:59;100620.22;;;-1.28;76.04
70103;BME280;57470;50.034;15.256;2023-01-29T08:30:26;100615.00;;;-1.27;74.44
70103;BME280;57470;50.034;15.256;2023-01-29T08:32:52;100614.13;;;-1.27;74.47
70103;BME280;57470;50.034;15.256;2023-01-29T08:35:17;100623.69;;;-1.20;74.66
70103;BME280;57470;50.034;15.256;2023-01-29T08:37:42;100631.44;;;-1.06;74.87
70103;BME280;57470;50.034;15.256;2023-01-29T08:40:08;100629.78;;;-1.18;74.94
70103;BME280;57470;50.034;15.256;2023-01-29T08:42:36;100613.22;;;-1.08;74.76
70103;BME280;57470;50.034;15.256;2023-01-29T08:45:01;100618.38;;;-0.96;74.31
70103;BME280;57470;50.034;15.256;2023-01-29T08:47:27;100619.09;;;-0.57;74.37
70103;BME280;57470;50.034;15.256;2023-01-29T08:49:52;100616.47;;;-0.54;73.61
70103;BME280;57470;50.034;15.256;2023-01-29T08:52:17;100621.66;;;-0.51;72.93
70103;BME280;57470;50.034;15.256;2023-01-29T08:54:43;100611.03;;;-0.21;73.08
70103;BME280;57470;50.034;15.256;2023-01-29T08:57:08;100606.03;;;-0.57;73.04
70103;BME280;57470;50.034;15.256;2023-01-29T08:59:33;100613.03;;;-0.68;72.83
70103;BME280;57470;50.034;15.256;2023-01-29T09:01:59;100605.16;;;-0.61;73.07
70103;BME280;57470;50.034;15.256;2023-01-29T09:04:24;100592.09;;;-0.59;73.00
70103;BME280;57470;50.034;15.256;2023-01-29T09:06:49;100596.44;;;-0.60;73.23
70103;BME280;57470;50.034;15.256;2023-01-29T09:09:15;100598.34;;;-0.91;73.60
70103;BME280;57470;50.034;15.256;2023-01-29T09:11:40;100593.97;;;-0.89;74.23
70103;BME280;57470;50.034;15.256;2023-01-29T09:14:06;100593.06;;;-0.77;74.07
70103;BME280;57470;50.034;15.256;2023-01-29T09:16:31;100584.25;;;-0.58;73.56
70103;BME280;57470;50.034;15.256;2023-01-29T09:18:56;100579.03;;;-0.61;72.60
70103;BME280;57470;50.034;15.256;2023-01-29T09:21:22;100584.44;;;-0.94;73.39
70103;BME280;57470;50.034;15.256;2023-01-29T09:23:47;100584.38;;;-0.85;73.46
70103;BME280;57470;50.034;15.256;2023-01-29T09:26:14;100578.25;;;-0.73;73.43
70103;BME280;57470;50.034;15.256;2023-01-29T09:28:39;100572.19;;;-0.86;73.70
70103;BME280;57470;50.034;15.256;2023-01-29T09:31:05;100581.78;;;-0.84;73.94
70103;BME280;57470;50.034;15.256;2023-01-29T09:33:30;100585.22;;;-0.80;74.04
70103;BME280;57470;50.034;15.256;2023-01-29T09:35:56;100575.59;;;-0.69;73.88
70103;BME280;57470;50.034;15.256;2023-01-29T09:38:22;100568.63;;;-0.67;75.11
70103;BME280;57470;50.034;15.256;2023-01-29T09:40:59;100573.97;;;-0.90;75.12
70103;BME280;57470;50.034;15.256;2023-01-29T09:46:05;100558.03;;;-0.44;74.58
70103;BME280;57470;50.034;15.256;2023-01-29T09:48:36;100558.63;;;-0.06;74.41
70103;BME280;57470;50.034;15.256;2023-01-29T09:51:06;100564.63;;;0.06;73.52
70103;BME280;57470;50.034;15.256;2023-01-29T09:53:47;100572.47;;;0.04;72.83
70103;BME280;57470;50.034;15.256;2023-01-29T09:56:19;100572.81;;;-0.40;72.40
70103;BME280;57470;50.034;15.256;2023-01-29T09:58:45;100579.66;;;-0.21;73.37
70103;BME280;57470;50.034;15.256;2023-01-29T10:06:31;100571.88;;;-0.28;73.73
70103;BME280;57470;50.034;15.256;2023-01-29T10:12:42;100556.13;;;-0.21;73.48
70103;BME280;57470;50.034;15.256;2023-01-29T10:18:09;100550.03;;;-0.20;72.27
70103;BME280;57470;50.034;15.256;2023-01-29T10:23:26;100537.81;;;-0.19;72.79
70103;BME280;57470;50.034;15.256;2023-01-29T10:25:54;100539.28;;;0.12;72.67
70103;BME280;57470;50.034;15.256;2023-01-29T10:31:17;100509.88;;;-0.11;73.02
70103;BME280;57470;50.034;15.256;2023-01-29T10:33:49;100497.75;;;-0.20;74.16
70103;BME280;57470;50.034;15.256;2023-01-29T10:36:20;100491.75;;;-0.35;75.54
70103;BME280;57470;50.034;15.256;2023-01-29T10:38:48;100488.44;;;-0.54;76.52
70103;BME280;57470;50.034;15.256;2023-01-29T10:41:36;100493.47;;;-0.34;75.78
70103;BME280;57470;50.034;15.256;2023-01-29T10:44:51;100486.50;;;-0.34;75.16
70103;BME280;57470;50.034;15.256;2023-01-29T10:50:41;100482.53;;;-0.84;75.41
70103;BME280;57470;50.034;15.256;2023-01-29T10:56:09;100471.34;;;-1.04;76.81
70103;BME280;57470;50.034;15.256;2023-01-29T10:58:51;100474.50;;;-0.58;76.24
70103;BME280;57470;50.034;15.256;2023-01-29T11:01:18;100482.53;;;-0.87;77.85
70103;BME280;57470;50.034;15.256;2023-01-29T11:03:43;100466.53;;;-0.38;77.12
70103;BME280;57470;50.034;15.256;2023-01-29T11:06:31;100470.66;;;-0.11;75.05
70103;BME280;57470;50.034;15.256;2023-01-29T11:09:11;100472.47;;;-0.22;76.23
70103;BME280;57470;50.034;15.256;2023-01-29T11:11:47;100464.06;;;-0.56;75.57
70103;BME280;57470;50.034;15.256;2023-01-29T11:14:26;100459.91;;;-0.88;76.87
70103;BME280;57470;50.034;15.256;2023-01-29T11:16:52;100462.59;;;-0.97;77.54
70103;BME280;57470;50.034;15.256;2023-01-29T11:19:35;100469.97;;;-0.33;77.09
70103;BME280;57470;50.034;15.256;2023-01-29T11:22:01;100469.28;;;-0.59;76.86
70103;BME280;57470;50.034;15.256;2023-01-29T11:24:28;100458.75;;;-0.46;76.54
70103;BME280;57470;50.034;15.256;2023-01-29T11:26:57;100457.81;;;-0.39;76.59
70103;BME280;57470;50.034;15.256;2023-01-29T11:29:38;100444.75;;;-0.39;77.06
70103;BME280;57470;50.034;15.256;2023-01-29T11:32:10;100445.19;;;0.05;76.63
70103;BME280;57470;50.034;15.256;2023-01-29T11:35:02;100445.63;;;-0.41;76.40
70103;BME280;57470;50.034;15.256;2023-01-29T11:37:46;100445.88;;;0.22;76.08
70103;BME280;57470;50.034;15.256;2023-01-29T11:42:44;100425.31;;;-0.12;76.02
70103;BME280;57470;50.034;15.256;2023-01-29T11:47:49;100407.44;;;0.27;74.91
70103;BME280;57470;50.034;15.256;2023-01-29T11:50:22;100400.75;;;0.02;75.33
70103;BME280;57470;50.034;15.256;2023-01-29T11:52:48;100403.00;;;0.35;75.47
70103;BME280;57470;50.034;15.256;2023-01-29T11:55:19;100398.69;;;0.31;75.75
70103;BME280;57470;50.034;15.256;2023-01-29T11:58:03;100393.69;;;0.10;76.96
70103;BME280;57470;50.034;15.256;2023-01-29T12:00:34;100396.59;;;-0.18;77.98
70103;BME280;57470;50.034;15.256;2023-01-29T12:05:32;100377.56;;;-0.27;77.88
70103;BME280;57470;50.034;15.256;2023-01-29T12:07:59;100372.72;;;0.14;77.02
70103;BME280;57470;50.034;15.256;2023-01-29T12:10:40;100361.66;;;-0.08;75.98
70103;BME280;57470;50.034;15.256;2023-01-29T12:13:20;100368.56;;;-0.01;76.51
70103;BME280;57470;50.034;15.256;2023-01-29T12:16:07;100358.03;;;0.04;75.53
70103;BME280;57470;50.034;15.256;2023-01-29T12:18:38;100347.91;;;-0.25;77.30
70103;BME280;57470;50.034;15.256;2023-01-29T12:21:33;100348.41;;;0.08;77.96
70103;BME280;57470;50.034;15.256;2023-01-29T12:26:45;100338.66;;;0.19;77.50
70103;BME280;57470;50.034;15.256;2023-01-29T12:32:33;100334.50;;;0.70;76.38
70103;BME280;57470;50.034;15.256;2023-01-29T12:35:15;100329.88;;;0.24;75.89
70103;BME280;57470;50.034;15.256;2023-01-29T12:38:13;100335.13;;;0.24;74.85
70103;BME280;57470;50.034;15.256;2023-01-29T12:40:45;100341.75;;;0.51;74.75
70103;BME280;57470;50.034;15.256;2023-01-29T12:43:21;100336.00;;;0.25;75.12
70103;BME280;57470;50.034;15.256;2023-01-29T12:45:52;100334.13;;;0.34;76.96
70103;BME280;57470;50.034;15.256;2023-01-29T12:48:23;100321.44;;;0.01;76.73
70103;BME280;57470;50.034;15.256;2023-01-29T12:50:51;100326.56;;;0.12;77.74
70103;BME280;57470;50.034;15.256;2023-01-29T12:55:56;100328.13;;;0.26;76.98
70103;BME280;57470;50.034;15.256;2023-01-29T12:58:41;100331.91;;;0.03;77.29
70103;BME280;57470;50.034;15.256;2023-01-29T13:01:14;100326.81;;;0.58;76.62
70103;BME280;57470;50.034;15.256;2023-01-29T13:03:56;100333.31;;;0.89;76.70
70103;BME280;57470;50.034;15.256;2023-01-29T13:06:35;100344.34;;;1.08;75.61
70103;BME280;57470;50.034;15.256;2023-01-29T13:09:10;100346.91;;;1.12;75.38
70103;BME280;57470;50.034;15.256;2023-01-29T13:11:47;100338.91;;;1.22;74.86
70103;BME280;57470;50.034;15.256;2023-01-29T13:14:21;100340.75;;;1.15;74.70
70103;BME280;57470;50.034;15.256;2023-01-29T13:16:52;100338.59;;;0.86;74.26
70103;BME280;57470;50.034;15.256;2023-01-29T13:19:33;100328.59;;;1.11;74.29
70103;BME280;57470;50.034;15.256;2023-01-29T13:22:02;100316.78;;;0.86;76.47
70103;BME280;57470;50.034;15.256;2023-01-29T13:24:38;100305.59;;;0.74;76.24
70103;BME280;57470;50.034;15.256;2023-01-29T13:27:04;100298.50;;;0.24;78.75
70103;BME280;57470;50.034;15.256;2023-01-29T13:29:31;100292.16;;;0.97;77.59
70103;BME280;57470;50.034;15.256;2023-01-29T13:31:58;100294.56;;;1.09;76.94
70103;BME280;57470;50.034;15.256;2023-01-29T13:34:30;100280.44;;;1.18;76.18
70103;BME280;57470;50.034;15.256;2023-01-29T13:36:59;100275.50;;;1.00;76.54
70103;BME280;57470;50.034;15.256;2023-01-29T13:39:31;100276.88;;;1.22;75.12
70103;BME280;57470;50.034;15.256;2023-01-29T13:41:59;100280.81;;;0.97;75.63
70103;BME280;57470;50.034;15.256;2023-01-29T13:44:32;100266.78;;;0.46;77.06
70103;BME280;57470;50.034;15.256;2023-01-29T13:47:10;100273.16;;;0.85;77.39
70103;BME280;57470;50.034;15.256;2023-01-29T13:49:51;100267.16;;;0.78;77.52
70103;BME280;57470;50.034;15.256;2023-01-29T13:59:59;100267.59;;;1.03;76.62
70103;BME280;57470;50.034;15.256;2023-01-29T14:02:29;100258.50;;;0.73;77.64
70103;BME280;57470;50.034;15.256;2023-01-29T14:07:55;100270.47;;;1.38;75.26
70103;BME280;57470;50.034;15.256;2023-01-29T14:10:22;100268.50;;;1.49;74.70
70103;BME280;57470;50.034;15.256;2023-01-29T14:12:50;100269.88;;;1.23;75.08
70103;BME280;57470;50.034;15.256;2023-01-29T14:20:23;100265.09;;;1.44;74.16
70103;BME280;57470;50.034;15.256;2023-01-29T14:22:56;100267.50;;;1.57;75.04
70103;BME280;57470;50.034;15.256;2023-01-29T14:25:28;100259.13;;;1.38;75.53
70103;BME280;57470;50.034;15.256;2023-01-29T14:27:56;100264.31;;;0.92;76.33
70103;BME280;57470;50.034;15.256;2023-01-29T14:30:23;100257.97;;;1.05;76.86
70103;BME280;57470;50.034;15.256;2023-01-29T14:32:51;100257.31;;;0.91;76.33
70103;BME280;57470;50.034;15.256;2023-01-29T14:37:47;100243.56;;;0.80;76.79
70103;BME280;57470;50.034;15.256;2023-01-29T14:40:20;100238.28;;;0.83;77.75
70103;BME280;57470;50.034;15.256;2023-01-29T14:52:43;100257.81;;;1.14;76.36
70103;BME280;57470;50.034;15.256;2023-01-29T14:55:27;100263.66;;;1.28;76.45